createdAt,value
2018-02-11T00:02:08.381Z,82.70
2018-02-11T00:04:36.027Z,83.60
2018-02-11T00:07:03.752Z,83.60
2018-02-11T00:09:32.238Z,83.60
2018-02-11T00:14:27.578Z,84.40
2018-02-11T00:16:55.224Z,85.00
2018-02-11T00:19:22.876Z,85.60
2018-02-11T00:21:50.568Z,85.40
2018-02-11T00:24:18.217Z,85.90
2018-02-11T00:26:45.866Z,86.90
2018-02-11T00:29:14.040Z,87.60
2018-02-11T00:31:42.524Z,87.80
2018-02-11T00:34:10.168Z,87.40
2018-02-11T00:36:37.881Z,88.10
2018-02-11T00:39:05.522Z,88.00
2018-02-11T00:41:33.164Z,88.70
2018-02-11T00:44:00.872Z,88.90
2018-02-11T00:46:28.516Z,89.10
2018-02-11T00:48:57.670Z,89.10
2018-02-11T00:54:07.826Z,89.30
2018-02-11T00:56:35.520Z,89.50
2018-02-11T00:59:03.217Z,89.40
2018-02-11T01:01:30.868Z,89.40
2018-02-11T01:03:58.571Z,89.50
2018-02-11T01:06:26.220Z,89.90
2018-02-11T01:08:54.720Z,90.50
2018-02-11T01:11:22.462Z,90.60
2018-02-11T01:13:50.101Z,90.60
2018-02-11T01:16:17.732Z,90.50
2018-02-11T01:18:45.441Z,90.80
2018-02-11T01:21:13.148Z,90.80
2018-02-11T01:23:40.788Z,90.80
2018-02-11T01:26:08.498Z,90.80
2018-02-11T01:28:36.146Z,91.00
2018-02-11T01:31:04.655Z,90.90
2018-02-11T01:33:32.353Z,90.10
2018-02-11T01:38:28.635Z,90.50
2018-02-11T01:40:56.359Z,90.30
2018-02-11T01:43:24.036Z,90.90
2018-02-11T01:45:51.685Z,90.50
2018-02-11T01:48:19.400Z,90.70
2018-02-11T01:50:47.042Z,90.60
2018-02-11T01:53:14.741Z,90.40
2018-02-11T01:55:42.404Z,90.00
2018-02-11T01:58:10.060Z,90.10
2018-02-11T02:00:38.596Z,90.30
2018-02-11T02:03:06.305Z,90.60
2018-02-11T02:05:33.981Z,90.70
2018-02-11T02:08:01.965Z,89.60
2018-02-11T02:13:10.337Z,88.00
2018-02-11T02:15:38.028Z,88.20
2018-02-11T02:18:05.677Z,88.40
2018-02-11T02:20:34.271Z,87.80
2018-02-11T02:25:30.864Z,87.40
2018-02-11T02:27:58.515Z,86.90
2018-02-11T02:30:27.128Z,86.80
2018-02-11T02:32:54.767Z,87.50
2018-02-11T02:35:23.024Z,88.70
2018-02-11T02:37:50.708Z,89.70
2018-02-11T02:40:18.348Z,90.20
2018-02-11T02:42:46.870Z,90.60
2018-02-11T02:45:15.389Z,90.10
2018-02-11T02:47:43.042Z,90.00
2018-02-11T02:52:38.376Z,89.70
2018-02-11T02:55:06.926Z,89.00
2018-02-11T02:57:35.314Z,88.90
2018-02-11T03:00:03.054Z,88.50
2018-02-11T03:02:30.693Z,87.60
2018-02-11T03:04:58.435Z,86.70
2018-02-11T03:07:26.139Z,87.20
2018-02-11T03:09:53.774Z,85.70
2018-02-11T03:12:23.360Z,85.10
2018-02-11T03:14:51.421Z,84.90
2018-02-11T03:17:20.016Z,85.10
2018-02-11T03:19:47.674Z,82.30
2018-02-11T03:22:16.333Z,81.60
2018-02-11T03:24:44.712Z,81.20
2018-02-11T03:27:12.373Z,79.30
2018-02-11T03:29:40.086Z,79.20
2018-02-11T03:32:07.724Z,78.10
2018-02-11T03:34:35.380Z,76.10
2018-02-11T03:39:42.185Z,75.00
2018-02-11T03:42:09.905Z,74.90
2018-02-11T03:47:05.184Z,74.90
2018-02-11T03:49:32.879Z,75.80
2018-02-11T03:52:00.521Z,75.80
2018-02-11T03:54:28.164Z,75.30
2018-02-11T03:56:55.854Z,75.70
2018-02-11T03:59:23.548Z,75.30
2018-02-11T04:01:51.129Z,74.90
2018-02-11T04:04:18.837Z,75.30
2018-02-11T04:06:46.485Z,76.50
2018-02-11T04:09:14.858Z,77.00
2018-02-11T04:11:42.556Z,77.40
2018-02-11T04:14:10.206Z,78.00
2018-02-11T04:16:37.840Z,77.30
2018-02-11T04:19:05.588Z,78.00
2018-02-11T04:21:33.214Z,78.20
2018-02-11T04:24:00.856Z,78.00
2018-02-11T04:26:29.629Z,77.80
2018-02-11T04:28:57.272Z,78.80
2018-02-11T04:31:24.919Z,79.70
2018-02-11T04:33:53.448Z,80.60
2018-02-11T04:36:21.089Z,80.80
2018-02-11T04:41:16.444Z,82.30
2018-02-11T04:43:44.224Z,80.60
2018-02-11T04:46:12.838Z,78.20
2018-02-11T04:48:41.400Z,78.00
2018-02-11T04:51:09.060Z,77.70
2018-02-11T04:53:37.672Z,77.70
2018-02-11T04:56:05.437Z,77.70
2018-02-11T04:58:33.073Z,76.30
2018-02-11T05:03:39.913Z,74.90
2018-02-11T05:06:07.551Z,73.30
2018-02-11T05:08:36.153Z,72.00
2018-02-11T05:13:31.977Z,74.50
2018-02-11T05:18:27.342Z,74.10
2018-02-11T05:20:54.992Z,74.00
2018-02-11T05:25:50.358Z,73.80
2018-02-11T05:28:17.994Z,73.10
2018-02-11T05:30:45.649Z,72.40
2018-02-11T05:33:14.185Z,71.10
2018-02-11T05:35:42.558Z,71.70
2018-02-11T05:38:10.201Z,73.00
2018-02-11T05:40:37.940Z,74.10
2018-02-11T05:43:06.035Z,74.80
2018-02-11T05:45:33.687Z,74.80
2018-02-11T05:48:01.407Z,75.10
2018-02-11T05:50:29.046Z,74.40
2018-02-11T05:52:56.690Z,74.70
2018-02-11T05:55:24.423Z,76.70
2018-02-11T05:57:52.108Z,78.70
2018-02-11T06:00:20.709Z,79.90
2018-02-11T06:05:18.201Z,79.90
2018-02-11T06:07:46.756Z,79.00
2018-02-11T06:12:42.109Z,78.30
2018-02-11T06:15:09.746Z,78.30
2018-02-11T06:17:38.322Z,78.20
2018-02-11T06:20:05.990Z,78.00
2018-02-11T06:22:34.457Z,77.30
2018-02-11T06:27:41.267Z,78.10
2018-02-11T06:30:08.973Z,78.50
2018-02-11T06:32:36.637Z,77.80
2018-02-11T06:35:04.296Z,77.40
2018-02-11T06:37:32.009Z,79.10
2018-02-11T06:40:01.898Z,80.30
2018-02-11T06:42:29.541Z,79.60
2018-02-11T06:44:57.234Z,78.50
2018-02-11T06:47:25.699Z,79.50
2018-02-11T06:52:21.751Z,80.60
2018-02-11T06:54:49.394Z,80.40
2018-02-11T06:57:17.165Z,80.60
2018-02-11T06:59:45.679Z,80.00
2018-02-11T07:02:13.318Z,78.70
2018-02-11T07:04:41.049Z,77.70
2018-02-11T07:09:36.334Z,78.30
2018-02-11T07:12:04.478Z,79.90
2018-02-11T07:14:33.558Z,81.00
2018-02-11T07:19:28.858Z,78.00
2018-02-11T07:21:56.606Z,78.80
2018-02-11T07:24:24.424Z,79.30
2018-02-11T07:26:52.079Z,78.60
2018-02-11T07:29:19.780Z,78.70
2018-02-11T07:31:47.433Z,79.30
2018-02-11T07:34:15.087Z,79.10
2018-02-11T07:36:43.519Z,78.20
2018-02-11T07:41:38.805Z,77.80
2018-02-11T07:44:06.509Z,76.40
2018-02-11T07:46:34.989Z,76.40
2018-02-11T07:49:02.642Z,74.80
2018-02-11T07:54:09.493Z,75.10
2018-02-11T07:56:37.197Z,73.30
2018-02-11T08:01:32.522Z,70.10
2018-02-11T08:04:00.223Z,70.00
2018-02-11T08:06:27.885Z,69.40
2018-02-11T08:08:55.529Z,71.00
2018-02-11T08:11:23.255Z,69.60
2018-02-11T08:13:50.949Z,67.80
2018-02-11T08:16:18.566Z,66.70
2018-02-11T08:18:46.323Z,65.90
2018-02-11T08:21:13.916Z,60.80
2018-02-11T08:23:42.531Z,62.20
2018-02-11T08:26:10.217Z,64.80
2018-02-11T08:28:37.858Z,70.20
2018-02-11T08:31:05.498Z,72.00
2018-02-11T08:33:33.215Z,72.00
2018-02-11T08:36:00.862Z,75.00
2018-02-11T08:38:28.511Z,74.20
2018-02-11T08:40:56.216Z,70.40
2018-02-11T08:45:52.061Z,70.10
2018-02-11T08:48:19.779Z,66.20
2018-02-11T08:50:47.802Z,66.80
2018-02-11T08:53:15.442Z,62.90
2018-02-11T08:58:26.801Z,60.90
2018-02-11T09:05:55.059Z,58.10
2018-02-11T09:08:22.742Z,57.40
2018-02-11T09:10:50.396Z,57.10
2018-02-11T09:13:18.454Z,54.20
2018-02-11T09:15:46.786Z,55.30
2018-02-11T09:18:14.296Z,53.60
2018-02-11T09:20:42.458Z,52.20
2018-02-11T09:23:10.134Z,51.80
2018-02-11T09:25:37.765Z,49.90
2018-02-11T09:28:05.481Z,48.70
2018-02-11T09:30:33.125Z,47.50
2018-02-11T09:33:00.764Z,44.70
2018-02-11T09:35:28.538Z,45.20
2018-02-11T09:37:56.170Z,45.40
2018-02-11T09:40:23.815Z,47.00
2018-02-11T09:45:19.137Z,46.80
2018-02-11T09:47:46.785Z,45.20
2018-02-11T09:50:15.318Z,48.10
2018-02-11T09:52:42.949Z,43.00
2018-02-11T09:55:10.594Z,45.20
2018-02-11T09:57:38.285Z,45.50
2018-02-11T10:00:05.936Z,43.90
2018-02-11T10:02:33.562Z,43.90
2018-02-11T10:05:01.283Z,43.00
2018-02-11T10:07:28.934Z,42.00
2018-02-11T10:09:56.612Z,39.40
2018-02-11T10:12:24.320Z,42.30
2018-02-11T10:14:51.966Z,39.50
2018-02-11T10:17:19.654Z,39.40
2018-02-11T10:19:47.341Z,41.00
2018-02-11T10:24:54.148Z,42.80
2018-02-11T10:27:21.808Z,41.10
2018-02-11T10:29:49.422Z,40.60
2018-02-11T10:32:17.124Z,41.90
2018-02-11T10:34:44.784Z,41.00
2018-02-11T10:37:12.422Z,41.10
2018-02-11T10:39:40.128Z,40.00
2018-02-11T10:42:07.769Z,40.70
2018-02-11T10:44:35.410Z,40.90
2018-02-11T10:47:03.098Z,41.00
2018-02-11T10:49:30.745Z,41.20
2018-02-11T10:51:58.381Z,40.20
2018-02-11T10:54:27.092Z,40.90
2018-02-11T10:56:54.729Z,41.60
2018-02-11T10:59:22.378Z,39.30
2018-02-11T11:01:50.065Z,39.50
2018-02-11T11:04:17.695Z,39.60
2018-02-11T11:06:45.375Z,40.40
2018-02-11T11:09:13.058Z,41.30
2018-02-11T11:11:40.685Z,39.80
2018-02-11T11:14:08.352Z,40.70
2018-02-11T11:16:36.870Z,39.80
2018-02-11T11:19:04.525Z,39.10
2018-02-11T11:21:32.155Z,40.50
2018-02-11T11:24:01.693Z,43.10
2018-02-11T11:26:29.361Z,41.40
2018-02-11T11:28:57.836Z,42.30
2018-02-11T11:31:25.595Z,42.50
2018-02-11T11:33:53.178Z,42.50
2018-02-11T11:36:21.781Z,41.90
2018-02-11T11:38:49.501Z,41.90
2018-02-11T11:43:58.715Z,41.70
2018-02-11T11:46:26.348Z,40.10
2018-02-11T11:48:54.398Z,40.30
2018-02-11T11:51:22.030Z,40.90
2018-02-11T11:53:49.669Z,41.20
2018-02-11T11:56:17.308Z,40.20
2018-02-11T11:58:45.039Z,40.90
2018-02-11T12:01:12.673Z,40.20
2018-02-11T12:03:40.304Z,40.60
2018-02-11T12:06:08.012Z,39.00
2018-02-11T12:08:35.660Z,40.80
2018-02-11T12:11:03.289Z,41.50
2018-02-11T12:13:31.005Z,40.80
2018-02-11T12:15:58.652Z,38.70
2018-02-11T12:18:26.732Z,38.40
2018-02-11T12:20:54.371Z,39.60
2018-02-11T12:23:22.009Z,39.80
2018-02-11T12:25:49.665Z,38.70
2018-02-11T12:28:17.381Z,38.30
2018-02-11T12:30:45.037Z,38.30
2018-02-11T12:33:12.668Z,38.70
2018-02-11T12:35:42.346Z,38.60
2018-02-11T12:38:10.064Z,39.00
2018-02-11T12:40:37.609Z,37.30
2018-02-11T12:43:05.304Z,39.00
2018-02-11T12:45:33.888Z,37.30
2018-02-11T12:50:30.475Z,38.00
2018-02-11T12:52:58.112Z,38.00
2018-02-11T12:55:25.739Z,38.20
2018-02-11T12:57:53.644Z,38.60
2018-02-11T13:00:24.696Z,36.10
2018-02-11T13:02:52.328Z,37.20
2018-02-11T13:08:01.142Z,37.50
2018-02-11T13:10:28.905Z,37.70
2018-02-11T13:12:56.474Z,37.50
2018-02-11T13:17:52.848Z,37.50
2018-02-11T13:20:20.558Z,37.30
2018-02-11T13:22:48.194Z,37.50
2018-02-11T13:25:16.013Z,37.80
2018-02-11T13:27:43.626Z,36.40
2018-02-11T13:30:11.259Z,36.50
2018-02-11T13:32:38.957Z,36.10
2018-02-11T13:35:06.616Z,37.40
2018-02-11T13:37:34.250Z,37.80
2018-02-11T13:40:01.950Z,36.10
2018-02-11T13:42:29.573Z,36.70
2018-02-11T13:44:57.217Z,37.20
2018-02-11T13:47:24.922Z,35.90
2018-02-11T13:49:52.557Z,37.10
2018-02-11T13:52:20.200Z,35.10
2018-02-11T13:54:47.876Z,35.10
2018-02-11T13:57:15.523Z,35.30
2018-02-11T13:59:44.429Z,35.30
2018-02-11T14:02:12.138Z,34.60
2018-02-11T14:04:39.779Z,36.10
2018-02-11T14:07:07.447Z,35.00
2018-02-11T14:09:35.105Z,36.70
2018-02-11T14:12:02.758Z,35.40
2018-02-11T14:14:30.380Z,35.40
2018-02-11T14:16:59.041Z,33.80
2018-02-11T14:19:26.686Z,34.80
2018-02-11T14:24:33.476Z,35.10
2018-02-11T14:27:01.221Z,33.90
2018-02-11T14:29:28.846Z,34.30
2018-02-11T14:31:57.367Z,35.90
2018-02-11T14:34:25.298Z,34.80
2018-02-11T14:36:52.672Z,36.40
2018-02-11T14:39:20.380Z,35.00
2018-02-11T14:41:48.012Z,34.70
2018-02-11T14:44:15.657Z,35.40
2018-02-11T14:46:43.393Z,35.70
2018-02-11T14:49:11.038Z,33.90
2018-02-11T14:51:38.696Z,34.70
2018-02-11T14:56:35.061Z,35.30
2018-02-11T14:59:03.268Z,35.00
2018-02-11T15:01:30.988Z,32.60
2018-02-11T15:03:58.633Z,33.30
2018-02-11T15:06:27.048Z,33.50
2018-02-11T15:08:54.748Z,33.80
2018-02-11T15:11:22.385Z,33.90
2018-02-11T15:13:50.023Z,34.30
2018-02-11T15:16:17.738Z,34.60
2018-02-11T15:18:45.383Z,34.50
2018-02-11T15:21:13.018Z,35.70
2018-02-11T15:23:40.770Z,35.40
2018-02-11T15:26:08.409Z,33.80
2018-02-11T15:28:36.058Z,33.80
2018-02-11T15:31:03.754Z,36.00
2018-02-11T15:33:31.436Z,33.90
2018-02-11T15:35:59.060Z,35.30
2018-02-11T15:38:26.774Z,34.10
2018-02-11T15:43:22.055Z,34.00
2018-02-11T15:45:49.757Z,34.00
2018-02-11T15:50:57.588Z,35.20
2018-02-11T15:53:26.380Z,36.30
2018-02-11T15:55:54.550Z,34.60
2018-02-11T15:58:22.242Z,35.80
2018-02-11T16:00:49.872Z,34.80
2018-02-11T16:03:17.514Z,34.50
2018-02-11T16:10:52.609Z,35.00
2018-02-11T16:13:20.239Z,35.40
2018-02-11T16:18:16.202Z,35.90
2018-02-11T16:20:43.881Z,35.70
2018-02-11T16:23:11.519Z,36.80
2018-02-11T16:25:39.209Z,37.40
2018-02-11T16:28:07.308Z,36.80
2018-02-11T16:30:35.446Z,37.70
2018-02-11T16:33:02.985Z,37.20
2018-02-11T16:35:30.632Z,37.00
2018-02-11T16:37:59.002Z,38.20
2018-02-11T16:40:26.666Z,37.70
2018-02-11T16:42:54.349Z,38.60
2018-02-11T16:45:22.042Z,39.60
2018-02-11T16:47:49.764Z,38.60
2018-02-11T16:50:18.490Z,40.40
2018-02-11T16:52:46.102Z,40.60
2018-02-11T16:55:13.819Z,41.20
2018-02-11T16:57:42.754Z,41.00
2018-02-11T17:00:10.396Z,42.00
2018-02-11T17:02:38.865Z,43.70
2018-02-11T17:07:34.149Z,43.70
2018-02-11T17:10:01.883Z,43.70
2018-02-11T17:12:29.512Z,43.10
2018-02-11T17:14:57.146Z,44.30
2018-02-11T17:17:24.903Z,45.20
2018-02-11T17:19:52.533Z,46.40
2018-02-11T17:22:20.230Z,45.60
2018-02-11T17:27:15.563Z,44.80
2018-02-11T17:32:22.384Z,44.30
2018-02-11T17:34:50.018Z,42.90
2018-02-11T17:37:19.789Z,43.30
2018-02-11T17:39:47.516Z,44.90
2018-02-11T17:42:15.627Z,46.30
2018-02-11T17:44:43.276Z,46.60
2018-02-11T17:47:10.993Z,47.00
2018-02-11T17:49:38.638Z,47.10
2018-02-11T17:52:07.096Z,47.10
2018-02-11T17:54:34.798Z,47.20
2018-02-11T17:57:02.434Z,47.40
2018-02-11T17:59:30.082Z,48.00
2018-02-11T18:01:57.778Z,49.00
2018-02-11T18:04:25.437Z,49.70
2018-02-11T18:06:54.552Z,50.00
2018-02-11T18:09:22.909Z,51.20
2018-02-11T18:11:50.548Z,50.60
2018-02-11T18:14:18.186Z,50.70
2018-02-11T18:16:45.933Z,50.90
2018-02-11T18:19:14.068Z,50.80
2018-02-11T18:21:41.689Z,50.80
2018-02-11T18:24:09.408Z,51.50
2018-02-11T18:26:37.058Z,52.00
2018-02-11T18:29:04.694Z,52.20
2018-02-11T18:31:32.390Z,51.60
2018-02-11T18:34:00.046Z,51.10
2018-02-11T18:36:27.763Z,49.90
2018-02-11T18:41:34.489Z,48.60
2018-02-11T18:44:02.193Z,50.60
2018-02-11T18:46:29.832Z,49.50
2018-02-11T18:48:57.473Z,49.80
2018-02-11T18:51:25.165Z,49.80
2018-02-11T18:53:52.816Z,49.60
2018-02-11T18:56:20.464Z,48.60
2018-02-11T18:58:48.165Z,49.00
2018-02-11T19:01:15.818Z,49.00
2018-02-11T19:03:43.457Z,49.40
2018-02-11T19:06:11.174Z,50.60
2018-02-11T19:08:38.868Z,50.10
2018-02-11T19:11:06.506Z,50.30
2018-02-11T19:13:34.162Z,50.70
2018-02-11T19:18:29.449Z,50.90
2018-02-11T19:20:57.161Z,49.90
2018-02-11T19:25:54.844Z,50.50
2018-02-11T19:28:22.560Z,50.40
2018-02-11T19:30:50.197Z,51.60
2018-02-11T19:33:17.928Z,50.90
2018-02-11T19:35:45.646Z,50.80
2018-02-11T19:38:13.290Z,51.60
2018-02-11T19:40:41.006Z,51.10
2018-02-11T19:43:08.670Z,52.20
2018-02-11T19:45:36.325Z,50.90
2018-02-11T19:48:04.055Z,50.70
2018-02-11T19:50:31.778Z,52.10
2018-02-11T19:52:59.406Z,54.10
2018-02-11T19:55:27.132Z,54.60
2018-02-11T19:57:55.005Z,55.20
2018-02-11T20:00:22.697Z,55.00
2018-02-11T20:05:18.482Z,54.80
2018-02-11T20:10:25.386Z,54.70
2018-02-11T20:12:53.991Z,55.50
2018-02-11T20:15:21.639Z,54.40
2018-02-11T20:17:49.356Z,52.80
2018-02-11T20:20:17.152Z,52.90
2018-02-11T20:22:44.850Z,53.00
2018-02-11T20:25:12.591Z,54.20
2018-02-11T20:30:07.885Z,55.70
2018-02-11T20:32:35.600Z,55.80
2018-02-11T20:35:03.240Z,56.10
2018-02-11T20:40:00.328Z,56.60
2018-02-11T20:42:26.637Z,58.70
2018-02-11T20:44:54.313Z,60.00
2018-02-11T20:47:22.057Z,61.60
2018-02-11T20:52:20.684Z,66.80
2018-02-11T20:54:48.394Z,70.10
2018-02-11T20:57:16.026Z,73.20
2018-02-11T20:59:43.665Z,76.90
2018-02-11T21:02:11.372Z,80.40
2018-02-11T21:04:39.096Z,81.20
2018-02-11T21:07:06.739Z,81.70
2018-02-11T21:09:34.444Z,82.80
2018-02-11T21:12:02.082Z,83.40
2018-02-11T21:14:29.716Z,85.10
2018-02-11T21:16:57.413Z,86.20
2018-02-11T21:19:25.098Z,86.70
2018-02-11T21:21:52.737Z,86.90
2018-02-11T21:24:20.853Z,88.50
2018-02-11T21:26:48.489Z,89.70
2018-02-11T21:29:16.144Z,90.20
2018-02-11T21:34:22.979Z,89.80
2018-02-11T21:36:50.665Z,90.80
2018-02-11T21:39:18.364Z,90.90
2018-02-11T21:41:46.024Z,91.40
2018-02-11T21:44:13.887Z,92.20
2018-02-11T21:46:42.567Z,92.40
2018-02-11T21:49:10.201Z,92.80
2018-02-11T21:51:37.924Z,93.10
2018-02-11T21:54:05.561Z,93.50
2018-02-11T21:59:01.527Z,92.30
2018-02-11T22:01:29.165Z,92.00
2018-02-11T22:06:24.522Z,93.00
2018-02-11T22:08:52.158Z,93.10
2018-02-11T22:13:47.519Z,96.20
2018-02-11T22:16:15.178Z,96.20
2018-02-11T22:18:43.724Z,95.10
2018-02-11T22:21:11.429Z,94.80
2018-02-11T22:23:39.090Z,95.40
2018-02-11T22:26:06.750Z,95.00
2018-02-11T22:28:34.488Z,94.30
2018-02-11T22:31:02.122Z,94.40
2018-02-11T22:35:57.484Z,94.80
2018-02-11T22:41:06.310Z,96.30
2018-02-11T22:43:33.955Z,97.60
2018-02-11T22:46:01.606Z,96.70
2018-02-11T22:50:56.981Z,93.80
2018-02-11T22:53:24.645Z,93.70
2018-02-11T22:55:52.341Z,95.40
2018-02-11T23:00:47.644Z,97.70
2018-02-11T23:03:15.367Z,97.70
2018-02-11T23:05:43.033Z,98.00
2018-02-11T23:08:10.693Z,96.60
2018-02-11T23:10:38.429Z,96.00
2018-02-11T23:13:06.820Z,95.80
2018-02-11T23:15:35.388Z,95.50
2018-02-11T23:18:03.088Z,95.90
2018-02-11T23:20:30.876Z,94.90
2018-02-11T23:22:59.848Z,94.30
2018-02-11T23:25:27.875Z,94.20
2018-02-11T23:27:55.377Z,94.50
2018-02-11T23:30:23.022Z,94.20
2018-02-11T23:32:50.722Z,96.30
2018-02-11T23:35:18.433Z,97.40
2018-02-11T23:37:52.613Z,97.30
2018-02-11T23:42:47.986Z,95.60
2018-02-11T23:45:15.625Z,94.50
2018-02-11T23:47:43.339Z,94.30
2018-02-11T23:50:11.534Z,94.60
2018-02-11T23:52:39.223Z,96.60
2018-02-11T23:57:48.035Z,96.80
